Stella W. — WDG5429 — position and weather

sailwx.info

Track history (hours):
 
Tides and Currents Weather Stations Pressure Air Temp Water Temp Dewpoint Dewpoint Depression Visibility Wind Speed Wind Dir Waves Ship Positions

Stella W.

Owner: T & M Boat Rentals, Berwick, LA. More information available from US FCC via Universal Licensing System and Coast Guard Vessel Documentation Center.

Last reported at 2017-Dec-10 10:46 UTC. Time now 2017-Dec-12 19:46 UTC.
Position N 30°00' W 093°46'.

Length 16 m; draft 5.7 m.

Type: Towing. MMSI: 367546570.

Date/timePositionNaut miles runAvg speedWind from/ knotsBaromVisibWave heightAir tempDewpointWater temp
2017-Dec-10 10:46N 30°00' W 093°46'1 4.4
2017-Dec-10 10:30N 30°01' W 093°45'2 4.9
2017-Dec-10 10:00N 30°03' W 093°44'2 3.4
2017-Dec-10 09:30N 30°04' W 093°42'2 3.6
2017-Dec-10 09:00N 30°04' W 093°40'2 4.8
2017-Dec-10 08:30N 30°03' W 093°37'2 4.7
2017-Dec-10 08:00N 30°04' W 093°34'2 4.9
2017-Dec-10 07:30N 30°04' W 093°31'2 5.0
2017-Dec-10 07:00N 30°04' W 093°28'3 5.0
2017-Dec-10 06:30N 30°04' W 093°26'3 5.1
2017-Dec-10 06:00N 30°04' W 093°23'2 4.8
2017-Dec-10 05:30N 30°05' W 093°20'2 4.1
2017-Dec-10 05:00N 30°05' W 093°18'2 4.2
2017-Dec-10 04:30N 30°04' W 093°16'0 0.0
2017-Dec-10 04:00N 30°04' W 093°16'0 0.0
2017-Dec-10 03:30N 30°04' W 093°16'0 0.0
2017-Dec-10 03:00N 30°04' W 093°16'0 0.0
2017-Dec-10 02:30N 30°04' W 093°16'0 0.5
2017-Dec-10 02:00N 30°04' W 093°16'2 3.1
2017-Dec-10 01:30N 30°02' W 093°16'3 5.3
2017-Dec-10 01:00N 30°00' W 093°14'4 6.2
2017-Dec-10 00:21N 29°57' W 093°11'3 5.5
2017-Dec-09 23:44N 29°56' W 093°07'32 3.6
2017-Dec-09 14:38N 29°54' W 092°30'1 5.8
2017-Dec-09 14:30N 29°54' W 092°29'4 5.5
2017-Dec-09 13:50N 29°53' W 092°25'2 4.6
2017-Dec-09 13:30N 29°53' W 092°23'2 3.3
2017-Dec-09 12:57N 29°51' W 092°22'2 4.1
2017-Dec-09 12:31N 29°51' W 092°20'1 2.7
2017-Dec-09 12:00N 29°50' W 092°18'2 4.5
2017-Dec-09 11:30N 29°49' W 092°16'1 1.8
2017-Dec-09 11:00N 29°48' W 092°15'0 0.0
2017-Dec-09 10:31N 29°48' W 092°15'0 0.0
2017-Dec-09 10:01N 29°48' W 092°15'0 0.0
2017-Dec-09 09:30N 29°48' W 092°15'0 0.0
2017-Dec-09 09:00N 29°48' W 092°15'0 0.0
2017-Dec-09 08:31N 29°48' W 092°15'0 0.0
2017-Dec-09 08:01N 29°48' W 092°15'0 0.0
2017-Dec-09 07:30N 29°48' W 092°15'0 0.0
2017-Dec-09 07:00N 29°48' W 092°15'0 0.0
2017-Dec-09 06:30N 29°48' W 092°15'0 0.0
2017-Dec-09 06:00N 29°48' W 092°15'0 0.0
2017-Dec-09 05:30N 29°48' W 092°15'0 0.0
2017-Dec-09 05:01N 29°48' W 092°15'0 0.0
2017-Dec-09 04:30N 29°48' W 092°15'0 0.0
2017-Dec-09 04:00N 29°48' W 092°15'2 3.5
2017-Dec-09 03:30N 29°48' W 092°14'2 3.2
2017-Dec-09 03:00N 29°47' W 092°12'1 2.5
2017-Dec-09 02:30N 29°47' W 092°11'2 4.3
2017-Dec-09 02:00N 29°47' W 092°08'3 5.1
2017-Dec-09 01:30N 29°48' W 092°05'3 5.4
2017-Dec-09 01:00N 29°49' W 092°03'3 5.6
2017-Dec-09 00:29N 29°50' W 091°59'  
Track history (hours):
 
Tides and Currents Weather Stations Pressure Air Temp Water Temp Dewpoint Dewpoint Depression Visibility Wind Speed Wind Dir Waves Ship Positions

Stella W.

Owner: T & M Boat Rentals, Berwick, LA. More information available from US FCC via Universal Licensing System and Coast Guard Vessel Documentation Center.

Last reported at 2017-Dec-10 10:46 UTC. Time now 2017-Dec-12 19:46 UTC.
Position N 30°00' W 093°46'.

Length 16 m; draft 5.7 m.

Type: Towing. MMSI: 367546570.

Date/timePositionNaut miles runAvg speedWind from/ knotsBaromVisibWave heightAir tempDewpointWater temp
2017-Dec-10 10:46N 30°00' W 093°46'1 4.4
2017-Dec-10 10:30N 30°01' W 093°45'2 4.9
2017-Dec-10 10:00N 30°03' W 093°44'2 3.4
2017-Dec-10 09:30N 30°04' W 093°42'2 3.6
2017-Dec-10 09:00N 30°04' W 093°40'2 4.8
2017-Dec-10 08:30N 30°03' W 093°37'2 4.7
2017-Dec-10 08:00N 30°04' W 093°34'2 4.9
2017-Dec-10 07:30N 30°04' W 093°31'2 5.0
2017-Dec-10 07:00N 30°04' W 093°28'3 5.0
2017-Dec-10 06:30N 30°04' W 093°26'3 5.1
2017-Dec-10 06:00N 30°04' W 093°23'2 4.8
2017-Dec-10 05:30N 30°05' W 093°20'2 4.1
2017-Dec-10 05:00N 30°05' W 093°18'2 4.2
2017-Dec-10 04:30N 30°04' W 093°16'0 0.0
2017-Dec-10 04:00N 30°04' W 093°16'0 0.0
2017-Dec-10 03:30N 30°04' W 093°16'0 0.0
2017-Dec-10 03:00N 30°04' W 093°16'0 0.0
2017-Dec-10 02:30N 30°04' W 093°16'0 0.5
2017-Dec-10 02:00N 30°04' W 093°16'2 3.1
2017-Dec-10 01:30N 30°02' W 093°16'3 5.3
2017-Dec-10 01:00N 30°00' W 093°14'4 6.2
2017-Dec-10 00:21N 29°57' W 093°11'3 5.5
2017-Dec-09 23:44N 29°56' W 093°07'32 3.6
2017-Dec-09 14:38N 29°54' W 092°30'1 5.8
2017-Dec-09 14:30N 29°54' W 092°29'4 5.5
2017-Dec-09 13:50N 29°53' W 092°25'2 4.6
2017-Dec-09 13:30N 29°53' W 092°23'2 3.3
2017-Dec-09 12:57N 29°51' W 092°22'2 4.1
2017-Dec-09 12:31N 29°51' W 092°20'1 2.7
2017-Dec-09 12:00N 29°50' W 092°18'2 4.5
2017-Dec-09 11:30N 29°49' W 092°16'1 1.8
2017-Dec-09 11:00N 29°48' W 092°15'0 0.0
2017-Dec-09 10:31N 29°48' W 092°15'0 0.0
2017-Dec-09 10:01N 29°48' W 092°15'0 0.0
2017-Dec-09 09:30N 29°48' W 092°15'0 0.0
2017-Dec-09 09:00N 29°48' W 092°15'0 0.0
2017-Dec-09 08:31N 29°48' W 092°15'0 0.0
2017-Dec-09 08:01N 29°48' W 092°15'0 0.0
2017-Dec-09 07:30N 29°48' W 092°15'0 0.0
2017-Dec-09 07:00N 29°48' W 092°15'0 0.0
2017-Dec-09 06:30N 29°48' W 092°15'0 0.0
2017-Dec-09 06:00N 29°48' W 092°15'0 0.0
2017-Dec-09 05:30N 29°48' W 092°15'0 0.0
2017-Dec-09 05:01N 29°48' W 092°15'0 0.0
2017-Dec-09 04:30N 29°48' W 092°15'0 0.0
2017-Dec-09 04:00N 29°48' W 092°15'2 3.5
2017-Dec-09 03:30N 29°48' W 092°14'2 3.2
2017-Dec-09 03:00N 29°47' W 092°12'1 2.5
2017-Dec-09 02:30N 29°47' W 092°11'2 4.3
2017-Dec-09 02:00N 29°47' W 092°08'3 5.1
2017-Dec-09 01:30N 29°48' W 092°05'3 5.4
2017-Dec-09 01:00N 29°49' W 092°03'3 5.6
2017-Dec-09 00:29N 29°50' W 091°59'  

Dump ship's entire track history